Time;durP1;ratioP1;P1;durP2;ratioP2;P2;SDS_P1;SDS_P2;PMS_P1;PMS_P2;Temp;Humidity;BMP_temperature;BMP_pressure;BME280_temperature;BME280_humidity;BME280_pressure;Samples;Min_cycle;Max_cycle;Signal;HPM_P1;HPM_P2
2023/10/01 00:01:34;;;;;;;;;;;;;;;;;;4933907;29;20031;-50
2023/10/01 00:04:01;;;;;;;14.25;7.93;;;;;;;;;;4934976;29;19915;-57
2023/10/01 00:06:26;;;;;;;12.00;7.57;;;;;;;;;;4935252;29;20519;-56
2023/10/01 00:08:53;;;;;;;13.38;8.32;;;;;;;;;;4935149;29;20028;-56
2023/10/01 00:11:19;;;;;;;14.35;8.10;;;;;;;;;;4935387;29;20062;-56
2023/10/01 00:13:44;;;;;;;14.00;8.57;;;;;;;;;;4934848;29;20040;-55
2023/10/01 00:16:09;;;;;;;14.05;8.57;;;;;;;;;;4933584;29;20032;-52
2023/10/01 00:18:35;;;;;;;13.25;8.80;;;;;;;;;;4934728;29;20473;-55
2023/10/01 00:21:02;;;;;;;15.45;9.15;;;;;;;;;;4936754;29;20110;-56
2023/10/01 00:23:27;;;;;;;15.88;8.93;;;;;;;;;;4933606;29;20118;-55
2023/10/01 00:25:52;;;;;;;12.65;8.38;;;;;;;;;;4911527;29;20455;-56
2023/10/01 00:28:19;;;;;;;16.23;9.50;;;;;;;;;;4932397;29;20035;-57
2023/10/01 00:30:44;;;;;;;12.98;8.82;;;;;;;;;;4919984;29;20032;-52
2023/10/01 00:33:10;;;;;;;13.88;8.32;;;;;;;;;;4932479;29;20453;-55
2023/10/01 00:35:39;;;;;;;12.02;8.82;;;;;;;;;;4926321;29;20350;-56
2023/10/01 00:38:06;;;;;;;17.27;9.07;;;;;;;;;;4915060;29;20043;-56
2023/10/01 00:40:31;;;;;;;15.32;9.25;;;;;;;;;;4926747;29;20054;-57
2023/10/01 00:42:57;;;;;;;12.88;8.55;;;;;;;;;;4934828;29;20071;-56
2023/10/01 00:45:23;;;;;;;13.27;8.60;;;;;;;;;;4931188;29;20567;-55
2023/10/01 00:47:51;;;;;;;14.82;8.90;;;;;;;;;;4934114;29;20101;-57
2023/10/01 00:50:22;;;;;;;16.08;9.38;;;;;;;;;;4915995;29;20027;-56
2023/10/01 00:52:52;;;;;;;16.33;9.25;;;;;;;;;;4933816;29;20053;-55
2023/10/01 00:55:20;;;;;;;15.88;9.20;;;;;;;;;;4931012;29;20127;-56
2023/10/01 00:57:46;;;;;;;15.23;9.43;;;;;;;;;;4934803;29;20040;-55
2023/10/01 01:00:16;;;;;;;15.07;9.20;;;;;;;;;;4935881;29;20429;-56
2023/10/01 01:02:56;;;;;;;15.02;9.40;;;;;;;;;;4939411;29;20037;-56
2023/10/01 01:05:34;;;;;;;16.45;9.70;;;;;;;;;;4937390;29;20103;-56
2023/10/01 01:08:02;;;;;;;15.45;9.75;;;;;;;;;;4922975;29;20146;-54
2023/10/01 01:10:31;;;;;;;16.08;10.18;;;;;;;;;;4917925;29;20659;-54
2023/10/01 01:12:58;;;;;;;15.93;9.70;;;;;;;;;;4937569;29;20115;-56
2023/10/01 01:15:23;;;;;;;15.05;9.80;;;;;;;;;;4919613;29;20042;-56
2023/10/01 01:17:53;;;;;;;16.75;10.02;;;;;;;;;;4937757;29;20027;-55
2023/10/01 01:20:19;;;;;;;17.35;9.85;;;;;;;;;;4937263;29;20039;-55
2023/10/01 01:22:51;;;;;;;14.65;8.88;;;;;;;;;;4918878;29;20405;-55
2023/10/01 01:25:20;;;;;;;14.52;8.98;;;;;;;;;;4936518;29;20110;-56
2023/10/01 01:27:50;;;;;;;15.15;8.57;;;;;;;;;;4937034;29;20035;-56
2023/10/01 01:30:19;;;;;;;14.65;8.55;;;;;;;;;;4935407;29;20482;-56
2023/10/01 01:32:47;;;;;;;14.00;8.65;;;;;;;;;;4936711;29;20055;-54
2023/10/01 01:35:13;;;;;;;15.80;8.73;;;;;;;;;;4936994;29;20035;-56
2023/10/01 01:37:47;;;;;;;15.50;8.52;;;;;;;;;;4937407;29;20040;-54
2023/10/01 01:40:24;;;;;;;13.27;8.63;;;;;;;;;;4931184;29;20035;-56
2023/10/01 01:42:51;;;;;;;12.63;7.95;;;;;;;;;;4919194;29;20042;-56
2023/10/01 01:45:25;;;;;;;14.73;8.07;;;;;;;;;;4933924;29;20219;-54
2023/10/01 01:47:50;;;;;;;13.90;8.68;;;;;;;;;;4935541;29;20036;-55
2023/10/01 01:50:19;;;;;;;13.77;8.80;;;;;;;;;;4934432;29;20058;-56
2023/10/01 01:52:49;;;;;;;14.73;8.23;;;;;;;;;;4936247;29;20544;-56
2023/10/01 01:55:23;;;;;;;13.65;8.30;;;;;;;;;;4935364;29;20464;-53
2023/10/01 02:00:37;;;;;;;13.55;8.20;;;;;;;;;;4933117;29;20047;-56
2023/10/01 02:03:17;;;;;;;13.65;8.30;;;;;;;;;;4934395;29;20107;-56
2023/10/01 02:05:47;;;;;;;12.77;8.50;;;;;;;;;;4915764;29;20068;-56
2023/10/01 02:08:34;;;;;;;13.55;7.88;;;;;;;;;;4936202;29;20066;-57
2023/10/01 02:11:04;;;;;;;18.52;8.43;;;;;;;;;;4932459;29;20086;-56
2023/10/01 02:13:30;;;;;;;15.77;7.90;;;;;;;;;;4933204;29;20647;-58
2023/10/01 02:15:55;;;;;;;12.80;7.75;;;;;;;;;;4936735;29;20035;-56
2023/10/01 02:18:20;;;;;;;12.30;7.72;;;;;;;;;;4932919;29;20046;-55
2023/10/01 02:20:56;;;;;;;12.57;7.32;;;;;;;;;;4936046;29;20045;-56
2023/10/01 02:23:33;;;;;;;12.60;6.93;;;;;;;;;;4934943;29;20091;-54
2023/10/01 02:26:06;;;;;;;10.00;6.70;;;;;;;;;;4917348;29;20039;-56
2023/10/01 02:28:33;;;;;;;12.85;6.95;;;;;;;;;;4934203;29;20074;-56
2023/10/01 02:31:01;;;;;;;12.02;6.80;;;;;;;;;;4933067;29;20407;-55
2023/10/01 02:36:12;;;;;;;13.43;6.95;;;;;;;;;;4935041;29;20516;-56
2023/10/01 02:38:45;;;;;;;13.77;6.53;;;;;;;;;;4935581;29;20039;-54
2023/10/01 02:41:10;;;;;;;11.35;6.97;;;;;;;;;;4936595;29;20114;-57
2023/10/01 02:43:41;;;;;;;11.05;6.40;;;;;;;;;;4937418;29;20084;-55
2023/10/01 02:46:12;;;;;;;14.70;6.70;;;;;;;;;;4934335;29;20073;-55
2023/10/01 02:48:42;;;;;;;11.25;6.10;;;;;;;;;;4935966;29;20035;-57
2023/10/01 02:51:14;;;;;;;13.27;6.80;;;;;;;;;;4932832;29;20042;-54
2023/10/01 02:54:04;;;;;;;14.18;6.78;;;;;;;;;;4935490;29;20036;-55
2023/10/01 02:56:34;;;;;;;11.52;6.93;;;;;;;;;;4914253;29;20035;-56
2023/10/01 02:59:12;;;;;;;10.90;6.80;;;;;;;;;;4931832;29;20036;-56
2023/10/01 03:01:42;;;;;;;12.23;6.25;;;;;;;;;;4933044;29;20044;-56
2023/10/01 03:04:13;;;;;;;13.48;6.78;;;;;;;;;;4931422;29;20036;-53
2023/10/01 03:06:47;;;;;;;10.13;6.40;;;;;;;;;;4932787;29;20032;-56
2023/10/01 03:09:29;;;;;;;10.32;6.32;;;;;;;;;;4933829;29;20143;-56
2023/10/01 03:14:42;;;;;;;12.70;6.18;;;;;;;;;;4934568;29;20064;-52
2023/10/01 03:17:08;;;;;;;9.70;6.40;;;;;;;;;;4936398;29;20035;-56
2023/10/01 03:19:36;;;;;;;11.40;6.13;;;;;;;;;;4933189;29;20027;-55
2023/10/01 03:24:31;;;;;;;11.48;6.13;;;;;;;;;;4934949;29;20035;-52
2023/10/01 03:27:18;;;;;;;11.10;6.00;;;;;;;;;;4933863;29;20039;-55
2023/10/01 03:29:44;;;;;;;9.88;5.95;;;;;;;;;;4936990;29;20130;-56
2023/10/01 03:32:27;;;;;;;9.80;6.22;;;;;;;;;;4935165;29;20512;-54
2023/10/01 03:34:53;;;;;;;11.38;6.03;;;;;;;;;;4930519;29;20127;-55
2023/10/01 03:37:27;;;;;;;11.63;6.30;;;;;;;;;;4932308;29;20137;-55
2023/10/01 03:39:53;;;;;;;9.90;5.60;;;;;;;;;;4935473;29;20115;-51
2023/10/01 03:42:19;;;;;;;11.90;5.60;;;;;;;;;;4934530;29;20031;-55
2023/10/01 03:47:29;;;;;;;9.45;5.30;;;;;;;;;;4929243;29;20046;-54
2023/10/01 03:49:57;;;;;;;12.25;5.88;;;;;;;;;;4932429;29;20032;-53
2023/10/01 03:52:29;;;;;;;11.00;5.75;;;;;;;;;;4934312;29;20034;-56
2023/10/01 03:57:27;;;;;;;11.27;5.65;;;;;;;;;;4933400;29;20070;-52
2023/10/01 03:59:52;;;;;;;8.75;5.30;;;;;;;;;;4930323;29;20036;-53
2023/10/01 04:02:42;;;;;;;8.32;5.28;;;;;;;;;;4933228;29;20107;-57
2023/10/01 04:07:53;;;;;;;9.35;5.68;;;;;;;;;;4932878;29;20305;-52
2023/10/01 04:10:28;;;;;;;10.38;5.45;;;;;;;;;;4933046;29;20485;-57
2023/10/01 04:12:55;;;;;;;9.95;5.10;;;;;;;;;;4916969;29;20091;-54
2023/10/01 04:15:40;;;;;;;11.75;5.45;;;;;;;;;;4930094;29;20433;-54
2023/10/01 04:18:09;;;;;;;11.43;4.80;;;;;;;;;;4937578;29;20118;-55
2023/10/01 04:20:37;;;;;;;8.82;4.97;;;;;;;;;;4933963;29;20110;-54
2023/10/01 04:23:04;;;;;;;8.15;4.95;;;;;;;;;;4917488;29;20039;-55
2023/10/01 04:25:38;;;;;;;9.30;4.75;;;;;;;;;;4916825;29;20028;-55
2023/10/01 04:28:08;;;;;;;9.13;5.03;;;;;;;;;;4933621;29;20030;-55
2023/10/01 04:30:34;;;;;;;10.23;4.90;;;;;;;;;;4933532;29;20039;-57
2023/10/01 04:33:18;;;;;;;7.78;4.80;;;;;;;;;;4931547;29;20528;-53
2023/10/01 04:35:58;;;;;;;8.05;4.35;;;;;;;;;;4930876;29;20028;-53
2023/10/01 04:38:29;;;;;;;9.98;4.47;;;;;;;;;;4915630;29;20528;-56
2023/10/01 04:40:57;;;;;;;;;;;;;;;;;;4933716;29;20392;-54
2023/10/01 04:43:26;;;;;;;8.93;4.32;;;;;;;;;;4933019;29;19918;-56
2023/10/01 04:45:52;;;;;;;8.75;4.55;;;;;;;;;;4931722;29;20040;-57
2023/10/01 04:48:24;;;;;;;8.55;4.43;;;;;;;;;;4932117;29;20054;-54
2023/10/01 04:50:55;;;;;;;8.73;4.57;;;;;;;;;;4934073;29;20038;-53
2023/10/01 04:53:25;;;;;;;10.43;4.13;;;;;;;;;;4933358;29;20067;-56
2023/10/01 04:56:00;;;;;;;8.20;4.32;;;;;;;;;;4932251;29;20281;-54
2023/10/01 04:58:26;;;;;;;9.80;4.43;;;;;;;;;;4931681;29;20032;-52
2023/10/01 05:00:55;;;;;;;8.82;4.38;;;;;;;;;;4931811;29;20035;-55
2023/10/01 05:03:36;;;;;;;8.10;4.05;;;;;;;;;;4931516;29;20032;-58
2023/10/01 05:06:02;;;;;;;9.00;4.18;;;;;;;;;;4933139;29;20038;-52
2023/10/01 05:08:38;;;;;;;9.75;4.20;;;;;;;;;;4916489;29;20063;-52
2023/10/01 05:11:04;;;;;;;7.78;4.20;;;;;;;;;;4931254;29;20131;-53
2023/10/01 05:13:31;;;;;;;10.23;4.55;;;;;;;;;;4927723;29;20095;-55
2023/10/01 05:15:56;;;;;;;9.88;4.43;;;;;;;;;;4928048;29;20040;-52
2023/10/01 05:18:26;;;;;;;8.07;4.18;;;;;;;;;;4927299;29;20046;-57
2023/10/01 05:20:58;;;;;;;7.53;3.78;;;;;;;;;;4928909;29;20106;-57
2023/10/01 05:23:26;;;;;;;7.20;3.90;;;;;;;;;;4933524;29;20400;-58
2023/10/01 05:25:52;;;;;;;8.25;3.78;;;;;;;;;;4932058;29;20557;-55
2023/10/01 05:28:23;;;;;;;8.50;4.22;;;;;;;;;;4929186;29;20072;-55
2023/10/01 05:30:58;;;;;;;6.57;3.95;;;;;;;;;;4897644;29;20078;-56
2023/10/01 05:33:24;;;;;;;7.53;3.88;;;;;;;;;;4902229;29;20044;-59
2023/10/01 05:35:54;;;;;;;8.32;3.80;;;;;;;;;;4931546;29;20031;-52
2023/10/01 05:38:21;;;;;;;8.00;3.53;;;;;;;;;;4931172;29;20061;-55
2023/10/01 05:40:52;;;;;;;8.27;4.10;;;;;;;;;;4919881;29;20068;-54
2023/10/01 05:43:18;;;;;;;8.23;4.15;;;;;;;;;;4929679;29;20036;-53
2023/10/01 05:45:50;;;;;;;12.43;4.18;;;;;;;;;;4931631;29;20594;-52
2023/10/01 05:48:19;;;;;;;9.50;4.10;;;;;;;;;;4935243;29;20040;-55
2023/10/01 05:50:46;;;;;;;7.80;4.10;;;;;;;;;;4918607;29;20039;-54
2023/10/01 05:53:13;;;;;;;7.80;3.95;;;;;;;;;;4935170;29;20038;-55
2023/10/01 05:55:39;;;;;;;8.32;4.05;;;;;;;;;;4929239;29;20032;-53
2023/10/01 05:58:14;;;;;;;11.10;4.43;;;;;;;;;;4926273;29;20450;-58
2023/10/01 06:00:45;;;;;;;7.47;4.00;;;;;;;;;;4899326;29;20374;-56
2023/10/01 06:03:15;;;;;;;9.45;3.97;;;;;;;;;;4917011;29;20044;-52
2023/10/01 06:05:50;;;;;;;9.10;4.10;;;;;;;;;;4917127;29;20131;-55
2023/10/01 06:08:24;;;;;;;10.30;4.10;;;;;;;;;;4917167;29;20247;-53
2023/10/01 06:10:59;;;;;;;9.30;4.15;;;;;;;;;;4933873;29;20040;-55
2023/10/01 06:13:28;;;;;;;9.25;4.20;;;;;;;;;;4936618;29;20072;-58
2023/10/01 06:16:16;;;;;;;8.10;4.18;;;;;;;;;;4937852;29;20042;-53
2023/10/01 06:18:50;;;;;;;7.40;3.88;;;;;;;;;;4917705;29;20036;-53
2023/10/01 06:21:36;;;;;;;9.13;4.03;;;;;;;;;;4901318;29;20092;-50
2023/10/01 06:24:07;;;;;;;8.15;4.00;;;;;;;;;;4924508;29;20113;-55
2023/10/01 06:26:50;;;;;;;8.32;4.10;;;;;;;;;;4914304;29;20060;-56
2023/10/01 06:29:16;;;;;;;10.55;4.40;;;;;;;;;;4917900;29;20032;-52
2023/10/01 06:31:52;;;;;;;8.48;4.03;;;;;;;;;;4917255;29;20043;-52
2023/10/01 06:34:23;;;;;;;8.07;4.18;;;;;;;;;;4900639;29;20032;-52
2023/10/01 06:36:58;;;;;;;7.45;4.10;;;;;;;;;;4916887;29;20466;-51
2023/10/01 06:39:30;;;;;;;9.55;3.90;;;;;;;;;;4920276;29;20040;-51
2023/10/01 06:44:41;;;;;;;6.85;3.80;;;;;;;;;;4935765;29;20401;-58
2023/10/01 06:47:14;;;;;;;9.25;4.00;;;;;;;;;;4916748;29;20470;-54
2023/10/01 06:49:57;;;;;;;8.25;3.72;;;;;;;;;;4916650;29;20036;-56
2023/10/01 06:52:27;;;;;;;8.40;4.10;;;;;;;;;;4917145;29;20128;-56
2023/10/01 06:54:57;;;;;;;9.05;3.85;;;;;;;;;;4915558;29;20043;-51
2023/10/01 06:57:27;;;;;;;8.05;4.03;;;;;;;;;;4927493;29;20046;-58
2023/10/01 06:59:56;;;;;;;8.75;4.13;;;;;;;;;;4935858;29;20024;-57
2023/10/01 07:02:34;;;;;;;8.48;3.80;;;;;;;;;;4935901;29;20047;-58
2023/10/01 07:05:00;;;;;;;10.15;4.28;;;;;;;;;;4936420;29;20031;-58
2023/10/01 07:07:28;;;;;;;10.32;4.20;;;;;;;;;;4936263;29;20416;-57
2023/10/01 07:09:56;;;;;;;11.48;4.20;;;;;;;;;;4944498;29;20613;-57
2023/10/01 07:12:23;;;;;;;8.93;4.00;;;;;;;;;;4955198;29;20487;-55
2023/10/01 07:14:52;;;;;;;9.07;4.22;;;;;;;;;;4939142;29;20023;-54
2023/10/01 07:17:23;;;;;;;8.30;3.88;;;;;;;;;;4936122;29;20036;-57
2023/10/01 07:20:02;;;;;;;;;;;;;;;;;;4935135;29;20128;-57
2023/10/01 07:22:32;;;;;;;9.18;4.38;;;;;;;;;;4935686;29;19911;-55
2023/10/01 07:25:05;;;;;;;9.00;4.53;;;;;;;;;;4934293;29;20043;-55
2023/10/01 07:27:31;;;;;;;10.57;4.40;;;;;;;;;;4935187;29;20111;-55
2023/10/01 07:29:56;;;;;;;9.68;4.07;;;;;;;;;;4936104;29;20160;-52
2023/10/01 07:32:24;;;;;;;9.00;4.22;;;;;;;;;;4935514;29;20110;-54
2023/10/01 07:34:59;;;;;;;9.38;4.22;;;;;;;;;;4934040;29;20638;-57
2023/10/01 07:37:31;;;;;;;10.52;4.40;;;;;;;;;;4935328;29;20111;-52
2023/10/01 07:40:16;;;;;;;10.48;4.78;;;;;;;;;;4918373;29;20032;-56
2023/10/01 07:42:49;;;;;;;10.40;4.20;;;;;;;;;;4933634;29;20083;-59
2023/10/01 07:45:16;;;;;;;10.02;4.38;;;;;;;;;;4936100;29;20401;-59
2023/10/01 07:47:45;;;;;;;10.50;4.50;;;;;;;;;;4934262;29;20036;-59
2023/10/01 07:50:13;;;;;;;10.57;5.00;;;;;;;;;;4918395;29;20080;-60
2023/10/01 07:52:41;;;;;;;10.38;4.30;;;;;;;;;;4934494;29;20034;-59
2023/10/01 07:57:52;;;;;;;9.52;4.50;;;;;;;;;;4934330;29;20102;-58
2023/10/01 08:00:29;;;;;;;10.95;4.75;;;;;;;;;;4935434;29;20111;-59
2023/10/01 08:05:39;;;;;;;10.45;4.53;;;;;;;;;;4934343;29;20075;-60
2023/10/01 08:08:09;;;;;;;10.88;4.43;;;;;;;;;;4935116;29;20032;-59
2023/10/01 08:10:37;;;;;;;11.07;4.82;;;;;;;;;;4933923;29;20505;-59
2023/10/01 08:13:06;;;;;;;11.90;4.70;;;;;;;;;;4934343;29;20071;-59
2023/10/01 08:15:38;;;;;;;11.80;4.43;;;;;;;;;;4934439;29;20031;-59
2023/10/01 08:18:26;;;;;;;10.60;4.70;;;;;;;;;;4935364;29;20043;-58
2023/10/01 08:20:58;;;;;;;10.00;5.22;;;;;;;;;;4917019;29;20090;-59
2023/10/01 08:23:25;;;;;;;12.40;5.00;;;;;;;;;;4932916;29;20498;-59
2023/10/01 08:25:51;;;;;;;10.38;4.63;;;;;;;;;;4933732;29;20605;-59
2023/10/01 08:30:49;;;;;;;9.90;4.57;;;;;;;;;;4933002;29;20406;-60
2023/10/01 08:33:22;;;;;;;13.20;5.30;;;;;;;;;;4934598;29;20449;-59
2023/10/01 08:36:01;;;;;;;11.68;5.88;;;;;;;;;;4924234;29;20043;-59
2023/10/01 08:38:29;;;;;;;12.60;5.13;;;;;;;;;;4931582;29;20032;-61
2023/10/01 08:41:02;;;;;;;11.73;5.50;;;;;;;;;;4933520;29;20468;-61
2023/10/01 08:43:35;;;;;;;11.43;4.72;;;;;;;;;;4915760;29;20042;-60
2023/10/01 08:46:17;;;;;;;13.70;5.45;;;;;;;;;;4917637;29;20389;-60
2023/10/01 08:48:43;;;;;;;13.27;5.10;;;;;;;;;;4916412;29;20035;-61
2023/10/01 08:51:11;;;;;;;13.45;5.63;;;;;;;;;;4917325;29;20046;-60
2023/10/01 08:53:41;;;;;;;10.88;4.95;;;;;;;;;;4933381;29;20032;-61
2023/10/01 08:56:32;;;;;;;11.55;5.47;;;;;;;;;;4933628;29;20028;-60
2023/10/01 08:58:59;;;;;;;12.35;5.10;;;;;;;;;;4916653;29;20103;-60
2023/10/01 09:01:28;;;;;;;11.15;5.13;;;;;;;;;;4932434;29;20038;-60
2023/10/01 09:03:56;;;;;;;11.70;5.80;;;;;;;;;;4916260;29;20087;-60
2023/10/01 09:06:24;;;;;;;11.48;5.68;;;;;;;;;;4934178;29;20107;-60
2023/10/01 09:08:54;;;;;;;14.07;5.43;;;;;;;;;;4933283;29;20052;-60
2023/10/01 09:11:42;;;;;;;10.88;5.03;;;;;;;;;;4917342;29;20388;-60
2023/10/01 09:17:00;;;;;;;14.00;5.68;;;;;;;;;;4934116;29;20465;-61
2023/10/01 09:19:32;;;;;;;14.85;5.00;;;;;;;;;;4936279;29;20043;-60
2023/10/01 09:22:10;;;;;;;12.68;5.10;;;;;;;;;;4935273;29;20039;-61
2023/10/01 09:24:39;;;;;;;12.20;5.28;;;;;;;;;;4937732;29;20428;-61
2023/10/01 09:27:09;;;;;;;13.60;5.22;;;;;;;;;;4937656;29;20448;-63
2023/10/01 09:29:43;;;;;;;12.85;5.15;;;;;;;;;;4937832;29;20031;-61
2023/10/01 09:32:19;;;;;;;14.50;5.60;;;;;;;;;;4937551;29;20365;-61
2023/10/01 09:34:53;;;;;;;11.00;5.43;;;;;;;;;;4935594;29;20038;-61
2023/10/01 09:37:42;;;;;;;11.23;5.45;;;;;;;;;;4937360;29;20110;-60
2023/10/01 09:43:04;;;;;;;11.07;5.18;;;;;;;;;;4916939;29;20040;-60
2023/10/01 09:45:37;;;;;;;15.40;5.50;;;;;;;;;;4937346;29;20385;-60
2023/10/01 09:48:09;;;;;;;12.57;5.28;;;;;;;;;;4937193;29;20111;-60
2023/10/01 09:50:44;;;;;;;17.13;5.38;;;;;;;;;;4919681;29;20143;-61
2023/10/01 09:53:18;;;;;;;12.48;5.35;;;;;;;;;;4937877;29;20123;-60
2023/10/01 09:55:49;;;;;;;14.68;5.70;;;;;;;;;;4936568;29;20107;-60
2023/10/01 09:58:24;;;;;;;11.00;5.10;;;;;;;;;;4937694;29;20071;-60
2023/10/01 10:00:53;;;;;;;12.55;5.45;;;;;;;;;;4944680;29;20070;-61
2023/10/01 10:03:19;;;;;;;13.30;5.32;;;;;;;;;;4952126;29;20031;-61
2023/10/01 10:05:46;;;;;;;15.32;5.57;;;;;;;;;;4936052;29;20497;-61
2023/10/01 10:08:14;;;;;;;12.35;5.15;;;;;;;;;;4936854;29;20392;-60
2023/10/01 10:10:49;;;;;;;13.68;5.72;;;;;;;;;;4936632;29;20052;-60
2023/10/01 10:13:36;;;;;;;12.02;5.40;;;;;;;;;;4937136;29;20035;-60
2023/10/01 10:16:30;;;;;;;10.98;4.78;;;;;;;;;;4919078;29;20083;-60
2023/10/01 10:19:20;;;;;;;13.13;5.18;;;;;;;;;;4934330;29;20377;-61
2023/10/01 10:24:48;;;;;;;14.75;5.20;;;;;;;;;;4936585;29;20099;-61
2023/10/01 10:27:27;;;;;;;13.10;5.93;;;;;;;;;;4919291;29;20123;-60
2023/10/01 10:30:05;;;;;;;10.88;5.10;;;;;;;;;;4918029;29;20072;-61
2023/10/01 10:32:32;;;;;;;13.27;5.53;;;;;;;;;;4935724;29;20036;-60
2023/10/01 10:35:15;;;;;;;11.63;5.00;;;;;;;;;;4933664;29;20043;-61
2023/10/01 10:37:53;;;;;;;11.05;5.00;;;;;;;;;;4936352;29;20064;-60
2023/10/01 10:43:07;;;;;;;11.90;5.32;;;;;;;;;;4935717;29;20024;-61
2023/10/01 10:45:46;;;;;;;11.35;4.93;;;;;;;;;;4936152;29;20031;-60
2023/10/01 10:48:21;;;;;;;12.73;5.35;;;;;;;;;;4935394;29;20023;-61
2023/10/01 10:50:53;;;;;;;12.07;5.18;;;;;;;;;;4935371;29;20035;-61
2023/10/01 10:53:19;;;;;;;12.30;5.40;;;;;;;;;;4935406;29;20055;-60
2023/10/01 10:55:54;;;;;;;11.90;5.40;;;;;;;;;;4935444;29;20115;-61
2023/10/01 10:58:20;;;;;;;11.80;5.22;;;;;;;;;;4935994;29;20042;-60
2023/10/01 11:00:47;;;;;;;9.77;4.85;;;;;;;;;;4935417;29;20035;-61
2023/10/01 11:03:12;;;;;;;11.98;4.90;;;;;;;;;;4935312;29;20091;-60
2023/10/01 11:05:50;;;;;;;11.55;5.07;;;;;;;;;;4935690;29;20028;-61
2023/10/01 11:08:28;;;;;;;12.85;5.35;;;;;;;;;;4935669;29;20028;-61
2023/10/01 11:10:54;;;;;;;13.57;5.45;;;;;;;;;;4948027;29;20389;-61
2023/10/01 11:14:00;;;;;;;10.95;5.22;;;;;;;;;;4954991;29;20034;-60
2023/10/01 11:16:37;;;;;;;10.90;5.07;;;;;;;;;;4925449;29;20094;-61
2023/10/01 11:19:14;;;;;;;13.45;5.22;;;;;;;;;;4937447;29;20031;-60
2023/10/01 11:22:06;;;;;;;11.88;5.28;;;;;;;;;;4935913;29;20042;-61
2023/10/01 11:24:39;;;;;;;11.23;5.15;;;;;;;;;;4928437;29;20103;-60
2023/10/01 11:27:20;;;;;;;13.10;5.82;;;;;;;;;;4935047;29;20035;-61
2023/10/01 11:30:19;;;;;;;12.27;4.90;;;;;;;;;;4934966;29;20035;-61
2023/10/01 11:33:13;;;;;;;11.70;5.35;;;;;;;;;;4954139;29;20027;-62
2023/10/01 11:35:59;;;;;;;14.88;5.72;;;;;;;;;;4954156;29;20388;-60
2023/10/01 11:38:26;;;;;;;12.50;5.85;;;;;;;;;;4950182;29;20035;-61
2023/10/01 11:41:06;;;;;;;12.52;5.57;;;;;;;;;;4953638;29;20099;-60
2023/10/01 11:44:06;;;;;;;12.38;5.78;;;;;;;;;;4939995;29;20039;-60
2023/10/01 11:49:32;;;;;;;12.27;5.45;;;;;;;;;;4916351;29;20058;-60
2023/10/01 11:52:05;;;;;;;11.10;5.75;;;;;;;;;;4914020;29;20028;-60
2023/10/01 11:54:43;;;;;;;12.85;5.45;;;;;;;;;;4916256;29;20043;-59
2023/10/01 11:57:22;;;;;;;12.35;5.72;;;;;;;;;;4915431;29;20044;-60
2023/10/01 11:59:55;;;;;;;11.57;5.20;;;;;;;;;;4932199;29;20042;-61
2023/10/01 12:02:32;;;;;;;13.82;5.65;;;;;;;;;;4954380;29;20460;-60
2023/10/01 12:05:07;;;;;;;15.93;5.28;;;;;;;;;;4953204;29;20031;-60
2023/10/01 12:07:40;;;;;;;14.23;5.93;;;;;;;;;;4948123;29;20488;-60
2023/10/01 12:10:07;;;;;;;12.75;5.40;;;;;;;;;;4935080;29;20047;-60
2023/10/01 12:12:36;;;;;;;12.80;5.57;;;;;;;;;;4933618;29;20159;-60
2023/10/01 12:17:54;;;;;;;13.85;5.57;;;;;;;;;;4914760;29;20050;-60
2023/10/01 12:20:23;;;;;;;11.55;5.43;;;;;;;;;;4921747;29;20039;-60
2023/10/01 12:23:10;;;;;;;12.35;5.57;;;;;;;;;;4940009;29;20035;-60
2023/10/01 12:25:46;;;;;;;12.73;5.65;;;;;;;;;;4953624;29;20039;-60
2023/10/01 12:28:27;;;;;;;11.98;5.82;;;;;;;;;;4926639;29;20044;-60
2023/10/01 12:31:08;;;;;;;11.25;5.38;;;;;;;;;;4933819;29;20035;-60
2023/10/01 12:33:43;;;;;;;13.35;5.88;;;;;;;;;;4916749;29;20176;-60
2023/10/01 12:39:16;;;;;;;12.23;5.95;;;;;;;;;;4933694;29;20090;-60
2023/10/01 12:41:56;;;;;;;10.85;5.68;;;;;;;;;;4944544;29;20028;-60
2023/10/01 12:44:28;;;;;;;12.40;5.50;;;;;;;;;;4934226;29;20028;-60
2023/10/01 12:47:07;;;;;;;11.13;5.45;;;;;;;;;;4932482;29;20043;-60
2023/10/01 12:49:36;;;;;;;13.48;5.80;;;;;;;;;;4932046;29;20028;-60
2023/10/01 12:52:09;;;;;;;13.90;5.83;;;;;;;;;;4933642;29;20036;-60
2023/10/01 12:54:38;;;;;;;14.10;6.28;;;;;;;;;;4952637;29;20027;-60
2023/10/01 12:57:12;;;;;;;14.35;5.63;;;;;;;;;;4952675;29;20043;-59
2023/10/01 12:59:39;;;;;;;12.00;5.88;;;;;;;;;;4949118;29;20119;-59
2023/10/01 13:02:22;;;;;;;13.73;6.60;;;;;;;;;;4952292;29;20032;-60
2023/10/01 13:04:50;;;;;;;13.55;6.70;;;;;;;;;;4902428;29;20035;-59
2023/10/01 13:07:27;;;;;;;12.00;6.18;;;;;;;;;;4933179;29;20471;-59
2023/10/01 13:09:54;;;;;;;13.85;6.18;;;;;;;;;;4931589;29;20083;-60
2023/10/01 13:12:25;;;;;;;14.50;6.63;;;;;;;;;;4924131;29;20063;-60
2023/10/01 13:17:38;;;;;;;13.68;6.28;;;;;;;;;;4934184;29;20035;-60
2023/10/01 13:20:18;;;;;;;14.70;5.95;;;;;;;;;;4933386;29;20074;-60
2023/10/01 13:22:59;;;;;;;12.43;5.97;;;;;;;;;;4932795;29;20133;-57
2023/10/01 13:25:24;;;;;;;;;;;;;;;;;;4929988;29;20028;-58
2023/10/01 13:28:01;;;;;;;13.90;6.70;;;;;;;;;;4933331;29;19922;-57
2023/10/01 13:33:23;;;;;;;11.48;6.13;;;;;;;;;;4934064;29;20063;-57
2023/10/01 13:35:58;;;;;;;14.18;6.70;;;;;;;;;;4933964;29;20028;-57
2023/10/01 14:10:53;;;;;;;14.48;6.60;;;;;;;;;;4937175;29;20080;-57
2023/10/01 14:13:29;;;;;;;12.35;6.70;;;;;;;;;;4952374;29;20039;-58
2023/10/01 14:16:11;;;;;;;13.40;6.97;;;;;;;;;;4955404;29;20553;-57
2023/10/01 14:18:40;;;;;;;14.38;7.03;;;;;;;;;;4945481;29;20408;-62
2023/10/01 14:21:15;;;;;;;13.73;6.65;;;;;;;;;;4918777;29;20100;-56
2023/10/01 14:23:42;;;;;;;12.32;6.25;;;;;;;;;;4935457;29;20038;-57
2023/10/01 14:26:21;;;;;;;14.50;6.90;;;;;;;;;;4929905;29;20028;-59
2023/10/01 14:28:49;;;;;;;14.35;6.95;;;;;;;;;;4933834;29;20024;-59
2023/10/01 14:31:38;;;;;;;14.90;6.68;;;;;;;;;;4935413;29;20169;-57
2023/10/01 14:34:03;;;;;;;13.13;6.40;;;;;;;;;;4935641;29;20024;-58
2023/10/01 14:36:29;;;;;;;13.73;6.40;;;;;;;;;;4936311;29;20034;-57
2023/10/01 14:38:58;;;;;;;13.60;6.40;;;;;;;;;;4934789;29;20118;-57
2023/10/01 14:41:28;;;;;;;13.10;6.65;;;;;;;;;;4936319;29;20038;-56
2023/10/01 14:43:54;;;;;;;;;;;;;;;;;;4935271;29;20476;-56
2023/10/01 14:46:33;;;;;;;13.00;6.20;;;;;;;;;;4919516;29;19914;-56
2023/10/01 14:49:04;;;;;;;12.50;6.63;;;;;;;;;;4916732;29;20123;-57
2023/10/01 14:51:32;;;;;;;14.88;6.47;;;;;;;;;;4917593;29;20039;-57
2023/10/01 14:53:58;;;;;;;14.68;7.20;;;;;;;;;;4931920;29;20032;-54
2023/10/01 14:56:26;;;;;;;13.13;6.60;;;;;;;;;;4936144;29;20055;-58
2023/10/01 14:58:52;;;;;;;12.95;6.28;;;;;;;;;;4903827;29;20028;-57
2023/10/01 15:01:20;;;;;;;13.48;6.82;;;;;;;;;;4935268;29;20036;-62
2023/10/01 15:03:53;;;;;;;12.73;6.55;;;;;;;;;;4935977;29;20027;-54
2023/10/01 15:06:20;;;;;;;14.07;5.93;;;;;;;;;;4934794;29;20515;-56
2023/10/01 15:08:45;;;;;;;14.88;6.78;;;;;;;;;;4933907;29;20038;-58
2023/10/01 15:11:14;;;;;;;16.20;6.60;;;;;;;;;;4917479;29;20138;-56
2023/10/01 15:13:44;;;;;;;12.02;5.88;;;;;;;;;;4936124;29;20502;-55
2023/10/01 15:16:12;;;;;;;;;;;;;;;;;;4918010;29;20085;-57
2023/10/01 15:18:44;;;;;;;15.80;7.05;;;;;;;;;;4935880;29;20386;-56
2023/10/01 15:21:31;;;;;;;13.80;6.78;;;;;;;;;;4936126;29;20087;-58
2023/10/01 15:24:00;;;;;;;14.65;7.03;;;;;;;;;;4908513;29;20034;-54
2023/10/01 15:26:29;;;;;;;12.57;6.65;;;;;;;;;;4935657;29;20499;-59
2023/10/01 15:28:56;;;;;;;16.13;7.07;;;;;;;;;;4936047;29;20032;-55
2023/10/01 15:31:32;;;;;;;13.90;7.30;;;;;;;;;;4935234;29;20036;-56
2023/10/01 15:34:03;;;;;;;15.80;7.13;;;;;;;;;;4935696;29;20052;-54
2023/10/01 15:36:40;;;;;;;;;;;;;;;;;;4936066;29;20035;-58
2023/10/01 15:39:14;;;;;;;13.15;6.65;;;;;;;;;;4933502;29;19957;-59
2023/10/01 15:41:43;;;;;;;15.23;6.68;;;;;;;;;;4940526;29;20110;-58
2023/10/01 15:44:10;;;;;;;15.57;7.68;;;;;;;;;;4934551;29;20043;-58
2023/10/01 15:46:40;;;;;;;13.95;7.30;;;;;;;;;;4943228;29;20468;-59
2023/10/01 15:49:18;;;;;;;14.80;7.60;;;;;;;;;;4911715;29;20035;-59
2023/10/01 15:51:46;;;;;;;13.90;7.60;;;;;;;;;;4932734;29;20054;-58
2023/10/01 15:54:22;;;;;;;14.82;7.13;;;;;;;;;;4934704;29;20038;-59
2023/10/01 15:56:49;;;;;;;16.40;7.32;;;;;;;;;;4935067;29;20059;-58
2023/10/01 15:59:21;;;;;;;14.32;7.13;;;;;;;;;;4934351;29;20476;-58
2023/10/01 16:01:53;;;;;;;16.20;7.90;;;;;;;;;;4934138;29;20198;-58
2023/10/01 16:04:23;;;;;;;15.45;7.75;;;;;;;;;;4923425;29;20196;-58
2023/10/01 16:07:02;;;;;;;16.70;8.15;;;;;;;;;;4937124;29;20416;-56
2023/10/01 16:09:38;;;;;;;15.07;7.93;;;;;;;;;;4936829;29;20054;-57
2023/10/01 16:12:12;;;;;;;17.38;7.68;;;;;;;;;;4946566;29;20049;-55
2023/10/01 16:14:39;;;;;;;15.70;8.20;;;;;;;;;;4944705;29;20031;-56
2023/10/01 16:17:20;;;;;;;15.05;7.63;;;;;;;;;;4933088;29;20039;-58
2023/10/01 16:19:56;;;;;;;17.20;8.38;;;;;;;;;;4937038;29;20074;-58
2023/10/01 16:22:27;;;;;;;15.38;7.40;;;;;;;;;;4917230;29;20099;-59
2023/10/01 16:24:55;;;;;;;15.43;7.97;;;;;;;;;;4934650;29;20040;-59
2023/10/01 16:27:36;;;;;;;17.83;8.20;;;;;;;;;;4916841;29;20028;-60
2023/10/01 16:30:16;;;;;;;19.27;8.15;;;;;;;;;;4945993;29;20027;-56
2023/10/01 16:32:50;;;;;;;16.13;7.33;;;;;;;;;;4934817;29;20087;-58